Landen, Belgium
Current Conditions -  °F | °C
As of 3:25 PM on Sunday 25 Jan 2015 (Local Time) from EBBE Reporting Station
Overcast Overcast  
Wind Chill: 31°   Ceiling: 7000
Heat Index: 37°   Visibility: 5mi
Dew Point: 36°   Wind: 8mph
Humidity: 93%   Direction: 240°WSW
Pressure: 30.39"   Gusts: NA
Location:  50.75°N, 5.08°E
Report Text: EBBE 251425Z AUTO 24007KT 8000 BKN070/// OVC090/// 03/02 Q1029 BLU
Loading
Personal Weather Stations






























Interactive Weather Map New forecast layout! Learn more

10-Day Weather Forecast

Advertisements
Track Severe Weather on mobile